createdAt,value
2022-07-27T00:00:54.925Z,2.30
2022-07-27T00:03:23.289Z,2.20
2022-07-27T00:05:50.404Z,2.20
2022-07-27T00:08:20.462Z,2.10
2022-07-27T00:10:47.496Z,2.00
2022-07-27T00:13:14.426Z,2.33
2022-07-27T00:15:41.953Z,2.10
2022-07-27T00:18:09.636Z,2.03
2022-07-27T00:20:37.080Z,2.00
2022-07-27T00:23:03.975Z,2.07
2022-07-27T00:25:31.031Z,2.10
2022-07-27T00:27:58.063Z,1.90
2022-07-27T00:30:26.577Z,2.10
2022-07-27T00:32:53.468Z,2.17
2022-07-27T00:35:20.747Z,2.70
2022-07-27T00:37:47.667Z,1.70
2022-07-27T00:40:15.113Z,2.20
2022-07-27T00:42:42.182Z,2.00
2022-07-27T00:45:09.824Z,1.87
2022-07-27T00:47:36.793Z,2.00
2022-07-27T00:50:04.545Z,1.80
2022-07-27T00:52:31.598Z,2.10
2022-07-27T00:54:59.838Z,2.00
2022-07-27T00:57:30.273Z,2.13
2022-07-27T00:59:57.356Z,2.20
2022-07-27T01:02:26.239Z,2.00
2022-07-27T01:04:56.824Z,1.90
2022-07-27T01:07:24.841Z,1.80
2022-07-27T01:09:58.129Z,2.43
2022-07-27T01:12:32.119Z,2.00
2022-07-27T01:15:00.277Z,2.20
2022-07-27T01:17:31.447Z,2.40
2022-07-27T01:19:59.336Z,2.10
2022-07-27T01:22:26.930Z,2.00
2022-07-27T01:24:53.970Z,2.23
2022-07-27T01:27:20.829Z,1.93
2022-07-27T01:29:48.043Z,2.20
2022-07-27T01:32:14.975Z,1.83
2022-07-27T01:34:41.893Z,2.00
2022-07-27T01:37:08.817Z,2.00
2022-07-27T01:39:35.698Z,2.10
2022-07-27T01:42:04.004Z,1.80
2022-07-27T01:44:30.909Z,2.00
2022-07-27T01:46:57.834Z,1.87
2022-07-27T01:49:24.800Z,2.30
2022-07-27T01:51:51.864Z,1.93
2022-07-27T01:54:18.753Z,1.70
2022-07-27T01:56:45.706Z,2.00
2022-07-27T01:59:16.203Z,2.00
2022-07-27T02:01:44.856Z,1.80
2022-07-27T02:04:12.449Z,2.00
2022-07-27T02:06:39.682Z,1.83
2022-07-27T02:09:06.760Z,2.00
2022-07-27T02:11:52.332Z,1.30
2022-07-27T02:14:21.180Z,1.53
2022-07-27T02:16:50.057Z,1.63
2022-07-27T02:19:18.361Z,1.53
2022-07-27T02:21:45.925Z,1.83
2022-07-27T02:24:12.838Z,1.70
2022-07-27T02:26:39.817Z,1.33
2022-07-27T02:29:06.719Z,1.67
2022-07-27T02:31:33.601Z,1.50
2022-07-27T02:34:00.942Z,1.63
2022-07-27T02:36:30.720Z,1.83
2022-07-27T02:38:58.599Z,1.13
2022-07-27T02:41:25.923Z,1.60
2022-07-27T02:43:52.768Z,1.60
2022-07-27T02:46:19.766Z,1.60
2022-07-27T02:48:46.935Z,1.77
2022-07-27T02:51:15.076Z,1.30
2022-07-27T02:53:42.374Z,1.40
2022-07-27T02:56:09.316Z,1.77
2022-07-27T02:58:36.624Z,1.70
2022-07-27T03:01:06.022Z,1.63
2022-07-27T03:03:36.841Z,1.70
2022-07-27T03:06:06.434Z,1.50
2022-07-27T03:08:33.636Z,1.33
2022-07-27T03:11:00.570Z,1.53
2022-07-27T03:13:28.879Z,1.53
2022-07-27T03:15:56.337Z,1.73
2022-07-27T03:18:23.251Z,1.67
2022-07-27T03:20:50.133Z,1.47
2022-07-27T03:23:20.459Z,1.50
2022-07-27T03:25:47.357Z,1.47
2022-07-27T03:28:14.230Z,1.50
2022-07-27T03:30:41.213Z,1.20
2022-07-27T03:33:08.369Z,1.40
2022-07-27T03:35:35.317Z,1.50
2022-07-27T03:38:02.395Z,1.27
2022-07-27T03:40:31.983Z,1.20
2022-07-27T03:42:59.479Z,1.10
2022-07-27T03:45:26.853Z,1.37
2022-07-27T03:47:54.192Z,1.40
2022-07-27T03:50:21.416Z,1.27
2022-07-27T03:52:48.278Z,1.57
2022-07-27T03:55:15.195Z,1.23
2022-07-27T03:57:42.082Z,1.37
2022-07-27T04:00:12.514Z,1.17
2022-07-27T04:02:42.894Z,1.20
2022-07-27T04:05:12.704Z,1.07
2022-07-27T04:07:40.159Z,0.93
2022-07-27T04:10:08.437Z,1.40
2022-07-27T04:12:39.515Z,1.37
2022-07-27T04:15:07.905Z,1.20
2022-07-27T04:17:54.463Z,1.20
2022-07-27T04:20:21.736Z,0.90
2022-07-27T04:22:49.062Z,1.10
2022-07-27T04:25:15.972Z,1.20
2022-07-27T04:27:42.821Z,1.20
2022-07-27T04:30:10.638Z,1.10
2022-07-27T04:32:38.015Z,1.20
2022-07-27T04:35:06.640Z,1.27
2022-07-27T04:37:34.937Z,1.17
2022-07-27T04:40:02.155Z,1.43
2022-07-27T04:42:29.890Z,1.50
2022-07-27T04:44:57.332Z,1.10
2022-07-27T04:47:24.225Z,1.10
2022-07-27T04:49:51.165Z,1.10
2022-07-27T04:52:18.490Z,1.27
2022-07-27T04:54:45.817Z,1.10
2022-07-27T04:57:12.715Z,0.97
2022-07-27T04:59:39.565Z,1.00
2022-07-27T05:02:06.527Z,1.33
2022-07-27T05:04:35.233Z,1.03
2022-07-27T05:07:02.167Z,1.30
2022-07-27T05:09:29.210Z,1.37
2022-07-27T05:11:56.090Z,1.20
2022-07-27T05:14:23.294Z,1.03
2022-07-27T05:16:50.777Z,1.07
2022-07-27T05:19:17.762Z,1.10
2022-07-27T05:21:44.624Z,1.03
2022-07-27T05:24:11.736Z,1.10
2022-07-27T05:26:38.851Z,1.30
2022-07-27T05:29:05.739Z,1.30
2022-07-27T05:31:32.728Z,1.37
2022-07-27T05:33:59.733Z,1.20
2022-07-27T05:36:27.018Z,1.30
2022-07-27T05:38:53.948Z,1.00
2022-07-27T05:41:25.275Z,1.17
2022-07-27T05:43:54.393Z,1.10
2022-07-27T05:46:22.003Z,1.00
2022-07-27T05:48:50.295Z,1.30
2022-07-27T05:51:17.271Z,1.33
2022-07-27T05:53:44.188Z,1.20
2022-07-27T05:56:11.429Z,1.20
2022-07-27T05:58:38.350Z,1.10
2022-07-27T06:01:05.367Z,1.27
2022-07-27T06:03:32.711Z,1.00
2022-07-27T06:06:18.456Z,1.10
2022-07-27T06:08:45.347Z,1.10
2022-07-27T06:11:12.379Z,1.00
2022-07-27T06:13:42.210Z,1.63
2022-07-27T06:16:10.337Z,1.30
2022-07-27T06:18:37.565Z,1.10
2022-07-27T06:21:05.209Z,1.30
2022-07-27T06:23:32.107Z,1.30
2022-07-27T06:25:59.197Z,1.20
2022-07-27T06:28:26.215Z,1.40
2022-07-27T06:30:56.162Z,1.37
2022-07-27T06:33:29.593Z,1.23
2022-07-27T06:35:58.461Z,1.03
2022-07-27T06:38:26.622Z,1.23
2022-07-27T06:40:54.493Z,1.17
2022-07-27T06:43:23.450Z,0.90
2022-07-27T06:45:50.891Z,1.27
2022-07-27T06:48:18.223Z,1.20
2022-07-27T06:50:45.168Z,1.33
2022-07-27T06:53:12.051Z,1.10
2022-07-27T06:55:39.107Z,1.10
2022-07-27T06:58:06.068Z,1.13
2022-07-27T07:00:33.824Z,1.07
2022-07-27T07:03:04.364Z,1.17
2022-07-27T07:05:33.069Z,1.20
2022-07-27T07:08:11.289Z,0.90
2022-07-27T07:10:44.089Z,1.40
2022-07-27T07:13:11.148Z,1.23
2022-07-27T07:15:40.400Z,1.10
2022-07-27T07:18:08.439Z,1.37
2022-07-27T07:20:36.436Z,1.57
2022-07-27T07:23:03.897Z,1.30
2022-07-27T07:25:32.503Z,0.73
2022-07-27T07:28:00.083Z,1.30
2022-07-27T07:30:28.015Z,1.37
2022-07-27T07:32:55.298Z,1.10
2022-07-27T07:35:22.221Z,1.30
2022-07-27T07:37:50.483Z,1.30
2022-07-27T07:43:06.623Z,1.50
2022-07-27T07:45:50.293Z,1.60
2022-07-27T07:48:18.527Z,1.13
2022-07-27T07:50:45.360Z,1.10
2022-07-27T07:53:15.328Z,1.20
2022-07-27T07:55:42.194Z,1.30
2022-07-27T07:58:09.157Z,1.27
2022-07-27T08:00:36.095Z,1.23
2022-07-27T08:03:03.195Z,1.17
2022-07-27T08:05:32.945Z,1.43
2022-07-27T08:07:59.817Z,1.27
2022-07-27T08:10:28.074Z,1.50
2022-07-27T08:12:56.837Z,1.20
2022-07-27T08:15:34.852Z,1.10
2022-07-27T08:18:04.942Z,1.20
2022-07-27T08:20:32.079Z,1.37
2022-07-27T08:22:58.972Z,1.40
2022-07-27T08:25:25.896Z,0.93
2022-07-27T08:27:52.855Z,1.70
2022-07-27T08:30:22.352Z,1.37
2022-07-27T08:32:53.240Z,1.47
2022-07-27T08:35:21.513Z,1.23
2022-07-27T08:37:48.909Z,1.60
2022-07-27T08:43:05.292Z,1.33
2022-07-27T08:45:33.491Z,1.40
2022-07-27T08:48:01.581Z,1.60
2022-07-27T08:50:30.728Z,1.70
2022-07-27T08:53:07.436Z,1.43
2022-07-27T08:55:41.670Z,1.70
2022-07-27T08:58:10.597Z,1.43
2022-07-27T09:00:43.130Z,1.33
2022-07-27T09:03:18.955Z,1.30
2022-07-27T09:05:51.522Z,1.40
2022-07-27T09:08:25.961Z,1.30
2022-07-27T09:10:55.453Z,1.23
2022-07-27T09:13:34.401Z,1.40
2022-07-27T09:16:21.189Z,1.50
2022-07-27T09:18:58.784Z,1.50
2022-07-27T09:21:25.827Z,1.37
2022-07-27T09:23:57.181Z,1.70
2022-07-27T09:26:33.264Z,1.60
2022-07-27T09:29:11.283Z,1.40
2022-07-27T09:31:49.278Z,1.67
2022-07-27T09:34:35.109Z,1.50
2022-07-27T09:37:06.444Z,1.30
2022-07-27T09:39:33.451Z,1.37
2022-07-27T09:42:02.502Z,1.80
2022-07-27T09:44:43.986Z,1.80
2022-07-27T09:47:26.559Z,2.10
2022-07-27T09:49:57.863Z,1.60
2022-07-27T09:52:31.210Z,1.50
2022-07-27T09:55:06.572Z,1.43
2022-07-27T09:57:57.485Z,1.40
2022-07-27T10:00:25.815Z,1.80
2022-07-27T10:02:54.930Z,1.80
2022-07-27T10:05:23.339Z,1.83
2022-07-27T10:07:54.016Z,1.57
2022-07-27T10:10:22.941Z,1.93
2022-07-27T10:12:54.515Z,1.80
2022-07-27T10:15:24.435Z,2.10
2022-07-27T10:18:07.351Z,1.80
2022-07-27T10:20:39.905Z,1.80
2022-07-27T10:23:07.652Z,1.30
2022-07-27T10:25:38.002Z,2.00
2022-07-27T10:28:16.405Z,1.83
2022-07-27T10:30:44.464Z,1.87
2022-07-27T10:33:44.545Z,2.00
2022-07-27T10:36:17.260Z,2.00
2022-07-27T10:38:56.580Z,1.60
2022-07-27T10:41:36.193Z,2.10
2022-07-27T10:44:18.042Z,1.80
2022-07-27T10:46:48.399Z,1.63
2022-07-27T10:49:26.246Z,2.30
2022-07-27T10:51:54.507Z,2.33
2022-07-27T10:54:36.275Z,1.80
2022-07-27T10:57:09.004Z,1.80
2022-07-27T11:00:07.531Z,2.23
2022-07-27T11:02:40.866Z,1.83
2022-07-27T11:05:18.355Z,1.90
2022-07-27T11:08:23.849Z,1.83
2022-07-27T11:10:48.467Z,2.90
2022-07-27T11:13:22.105Z,1.83
2022-07-27T11:16:04.539Z,1.90
2022-07-27T11:18:45.208Z,1.67
2022-07-27T11:21:29.154Z,2.33
2022-07-27T11:24:04.012Z,1.80
2022-07-27T11:26:40.228Z,1.93
2022-07-27T11:29:09.820Z,1.63
2022-07-27T11:31:54.556Z,2.10
2022-07-27T11:34:30.645Z,1.90
2022-07-27T11:37:02.048Z,1.67
2022-07-27T11:42:21.867Z,1.83
2022-07-27T11:44:52.935Z,1.70
2022-07-27T11:47:21.728Z,1.80
2022-07-27T11:49:48.774Z,1.53
2022-07-27T11:52:18.488Z,2.17
2022-07-27T11:54:52.647Z,2.30
2022-07-27T11:57:20.627Z,2.03
2022-07-27T11:59:47.999Z,1.50
2022-07-27T12:02:19.665Z,1.80
2022-07-27T12:04:49.334Z,2.03
2022-07-27T12:07:19.939Z,2.00
2022-07-27T12:09:56.963Z,2.07
2022-07-27T12:12:37.125Z,1.77
2022-07-27T12:15:44.224Z,1.80
2022-07-27T12:18:06.689Z,1.70
2022-07-27T12:20:35.704Z,1.73
2022-07-27T12:23:08.860Z,2.00
2022-07-27T12:25:36.413Z,2.00
2022-07-27T12:28:17.865Z,1.60
2022-07-27T12:30:51.953Z,1.80
2022-07-27T12:33:37.631Z,0.90
2022-07-27T12:36:07.941Z,2.03
2022-07-27T12:38:43.684Z,1.70
2022-07-27T12:41:11.876Z,1.53
2022-07-27T12:43:38.901Z,1.70
2022-07-27T12:46:15.504Z,1.33
2022-07-27T12:48:43.274Z,1.73
2022-07-27T12:51:11.047Z,1.40
2022-07-27T12:53:38.792Z,1.73
2022-07-27T12:56:09.902Z,1.27
2022-07-27T12:58:37.589Z,0.77
2022-07-27T13:01:05.849Z,1.53
2022-07-27T13:03:33.140Z,1.70
2022-07-27T13:06:05.843Z,1.70
2022-07-27T13:08:37.645Z,1.63
2022-07-27T13:11:04.546Z,1.83
2022-07-27T13:13:31.465Z,1.63
2022-07-27T13:15:58.383Z,1.57
2022-07-27T13:18:25.392Z,1.40
2022-07-27T13:20:52.627Z,1.60
2022-07-27T13:23:20.043Z,1.73
2022-07-27T13:25:46.929Z,1.30
2022-07-27T13:28:13.851Z,1.67
2022-07-27T13:30:40.852Z,1.80
2022-07-27T13:33:08.075Z,1.77
2022-07-27T13:35:35.039Z,1.53
2022-07-27T13:38:02.184Z,1.30
2022-07-27T13:40:29.375Z,1.83
2022-07-27T13:42:56.292Z,1.80
2022-07-27T13:45:23.479Z,1.30
2022-07-27T13:47:50.424Z,1.60
2022-07-27T13:50:19.318Z,2.00
2022-07-27T13:52:47.955Z,1.80
2022-07-27T13:55:16.913Z,1.60
2022-07-27T13:57:44.674Z,1.90
2022-07-27T14:00:13.091Z,1.40
2022-07-27T14:02:40.128Z,1.00
2022-07-27T14:05:13.080Z,1.30
2022-07-27T14:07:42.468Z,1.20
2022-07-27T14:10:30.122Z,1.67
2022-07-27T14:13:07.404Z,1.70
2022-07-27T14:15:53.056Z,1.30
2022-07-27T14:18:29.726Z,1.40
2022-07-27T14:21:00.122Z,1.47
2022-07-27T14:23:28.595Z,1.43
2022-07-27T14:25:57.693Z,1.73
2022-07-27T14:28:26.858Z,1.80
2022-07-27T14:30:55.229Z,1.50
2022-07-27T14:33:22.435Z,1.70
2022-07-27T14:35:49.679Z,1.77
2022-07-27T14:38:27.785Z,1.23
2022-07-27T14:40:59.447Z,1.50
2022-07-27T14:43:27.313Z,1.53
2022-07-27T14:45:54.286Z,1.70
2022-07-27T14:48:36.786Z,1.47
2022-07-27T14:51:09.437Z,1.40
2022-07-27T14:53:36.259Z,1.50
2022-07-27T14:56:03.449Z,1.60
2022-07-27T14:58:30.341Z,1.57
2022-07-27T15:00:58.526Z,1.50
2022-07-27T15:03:25.451Z,1.50
2022-07-27T15:05:52.490Z,1.33
2022-07-27T15:08:20.412Z,1.40
2022-07-27T15:10:48.566Z,1.90
2022-07-27T15:13:16.375Z,1.40
2022-07-27T15:15:43.480Z,1.90
2022-07-27T15:18:10.616Z,1.60
2022-07-27T15:20:37.488Z,1.40
2022-07-27T15:23:04.567Z,1.37
2022-07-27T15:25:31.455Z,1.20
2022-07-27T15:27:58.716Z,1.57
2022-07-27T15:30:25.661Z,1.37
2022-07-27T15:32:52.593Z,1.27
2022-07-27T15:35:19.541Z,1.50
2022-07-27T15:37:54.810Z,1.77
2022-07-27T15:40:38.362Z,1.47
2022-07-27T15:43:12.057Z,1.37
2022-07-27T15:45:42.637Z,1.40
2022-07-27T15:48:11.901Z,1.57
2022-07-27T15:50:42.236Z,1.27
2022-07-27T15:53:11.005Z,2.00
2022-07-27T15:55:38.543Z,1.53
2022-07-27T15:58:06.894Z,1.40
2022-07-27T16:00:40.777Z,1.60
2022-07-27T16:03:10.535Z,2.27
2022-07-27T16:05:39.249Z,1.60
2022-07-27T16:08:09.367Z,1.50
2022-07-27T16:10:38.547Z,1.30
2022-07-27T16:13:06.881Z,1.93
2022-07-27T16:15:52.684Z,1.57
2022-07-27T16:18:19.727Z,1.50
2022-07-27T16:20:46.629Z,1.70
2022-07-27T16:23:18.237Z,1.60
2022-07-27T16:26:07.654Z,1.60
2022-07-27T16:28:40.107Z,1.33
2022-07-27T16:31:10.214Z,1.37
2022-07-27T16:33:37.812Z,1.30
2022-07-27T16:36:05.839Z,1.77
2022-07-27T16:38:33.266Z,1.50
2022-07-27T16:41:00.262Z,1.40
2022-07-27T16:43:37.946Z,1.50
2022-07-27T16:46:10.528Z,1.70
2022-07-27T16:48:41.882Z,1.43
2022-07-27T16:51:14.386Z,1.60
2022-07-27T16:53:44.303Z,1.30
2022-07-27T16:56:11.764Z,1.30
2022-07-27T16:58:39.270Z,1.63
2022-07-27T17:01:06.943Z,1.37
2022-07-27T17:03:34.234Z,1.27
2022-07-27T17:06:06.104Z,1.60
2022-07-27T17:08:34.918Z,1.40
2022-07-27T17:11:02.326Z,1.60
2022-07-27T17:13:33.613Z,1.13
2022-07-27T17:16:04.809Z,1.20
2022-07-27T17:18:39.064Z,1.33
2022-07-27T17:21:07.595Z,1.30
2022-07-27T17:23:37.895Z,1.40
2022-07-27T17:26:07.297Z,1.53
2022-07-27T17:28:36.770Z,1.20
2022-07-27T17:31:05.650Z,1.43
2022-07-27T17:33:32.794Z,1.47
2022-07-27T17:36:00.154Z,1.20
2022-07-27T17:38:27.700Z,1.43
2022-07-27T17:40:54.632Z,1.17
2022-07-27T17:43:21.602Z,1.00
2022-07-27T17:45:48.698Z,1.30
2022-07-27T17:48:15.607Z,1.43
2022-07-27T17:50:42.546Z,1.23
2022-07-27T17:53:09.755Z,1.53
2022-07-27T17:55:38.171Z,1.30
2022-07-27T17:58:05.085Z,1.00
2022-07-27T18:00:32.258Z,1.13
2022-07-27T18:02:59.118Z,1.10
2022-07-27T18:05:26.104Z,1.37
2022-07-27T18:07:53.816Z,1.07
2022-07-27T18:10:21.267Z,1.40
2022-07-27T18:12:48.208Z,1.10
2022-07-27T18:15:34.074Z,1.40
2022-07-27T18:18:01.123Z,1.33
2022-07-27T18:20:28.064Z,1.30
2022-07-27T18:22:54.960Z,1.47
2022-07-27T18:25:22.217Z,1.00
2022-07-27T18:27:50.303Z,1.37
2022-07-27T18:30:17.876Z,1.47
2022-07-27T18:32:48.087Z,1.30
2022-07-27T18:35:15.220Z,1.20
2022-07-27T18:37:42.177Z,1.10
2022-07-27T18:40:10.794Z,1.20
2022-07-27T18:42:39.426Z,1.30
2022-07-27T18:45:09.261Z,1.20
2022-07-27T18:47:37.109Z,1.30
2022-07-27T18:50:06.193Z,1.10
2022-07-27T18:52:33.603Z,1.37
2022-07-27T18:55:01.051Z,1.27
2022-07-27T18:57:29.030Z,1.30
2022-07-27T18:59:55.957Z,1.10
2022-07-27T19:02:25.461Z,1.13
2022-07-27T19:04:53.898Z,1.13
2022-07-27T19:07:22.114Z,1.20
2022-07-27T19:09:50.901Z,1.47
2022-07-27T19:12:17.816Z,0.97
2022-07-27T19:14:44.814Z,1.30
2022-07-27T19:17:18.353Z,1.10
2022-07-27T19:19:46.057Z,1.10
2022-07-27T19:22:13.722Z,1.10
2022-07-27T19:24:40.664Z,1.30
2022-07-27T19:27:07.567Z,1.50
2022-07-27T19:29:34.438Z,1.23
2022-07-27T19:32:01.357Z,1.20
2022-07-27T19:34:28.235Z,1.00
2022-07-27T19:36:55.150Z,1.30
2022-07-27T19:39:22.091Z,1.20
2022-07-27T19:41:48.977Z,1.50
2022-07-27T19:44:21.976Z,1.33
2022-07-27T19:46:49.309Z,1.20
2022-07-27T19:49:18.347Z,1.23
2022-07-27T19:51:45.623Z,0.90
2022-07-27T19:54:12.508Z,1.50
2022-07-27T19:56:39.481Z,1.27
2022-07-27T19:59:06.686Z,1.50
2022-07-27T20:01:33.891Z,1.30
2022-07-27T20:04:04.607Z,1.20
2022-07-27T20:06:32.263Z,0.97
2022-07-27T20:08:59.768Z,1.40
2022-07-27T20:11:29.888Z,1.40
2022-07-27T20:13:59.174Z,1.20
2022-07-27T20:16:30.259Z,1.23
2022-07-27T20:18:58.123Z,1.37
2022-07-27T20:21:26.885Z,1.50
2022-07-27T20:23:54.481Z,1.27
2022-07-27T20:26:21.328Z,1.23
2022-07-27T20:28:49.899Z,1.13
2022-07-27T20:31:17.489Z,1.13
2022-07-27T20:33:44.534Z,1.20
2022-07-27T20:36:11.568Z,1.50
2022-07-27T20:38:38.511Z,1.30
2022-07-27T20:41:05.464Z,1.07
2022-07-27T20:43:32.795Z,1.40
2022-07-27T20:45:59.921Z,1.20
2022-07-27T20:48:27.020Z,0.90
2022-07-27T20:50:53.977Z,1.33
2022-07-27T20:53:20.879Z,1.20
2022-07-27T20:55:48.282Z,1.10
2022-07-27T20:58:15.165Z,0.80
2022-07-27T21:00:42.319Z,1.10
2022-07-27T21:03:09.316Z,1.30
2022-07-27T21:05:36.183Z,0.80
2022-07-27T21:08:03.246Z,1.00
2022-07-27T21:10:30.207Z,1.60
2022-07-27T21:12:57.075Z,1.40
2022-07-27T21:15:33.829Z,1.40
2022-07-27T21:18:01.947Z,1.30
2022-07-27T21:20:29.392Z,1.10
2022-07-27T21:23:15.021Z,1.50
2022-07-27T21:25:43.386Z,1.00
2022-07-27T21:28:13.220Z,1.13
2022-07-27T21:30:45.399Z,1.30
2022-07-27T21:33:12.578Z,0.93
2022-07-27T21:35:39.666Z,1.20
2022-07-27T21:38:06.585Z,1.10
2022-07-27T21:40:33.581Z,1.07
2022-07-27T21:43:02.572Z,1.10
2022-07-27T21:45:29.582Z,1.00
2022-07-27T21:47:57.624Z,1.10
2022-07-27T21:50:24.562Z,1.00
2022-07-27T21:52:52.728Z,1.13
2022-07-27T21:55:25.452Z,1.20
2022-07-27T21:57:53.229Z,1.23
2022-07-27T22:00:39.003Z,1.20
2022-07-27T22:03:07.103Z,1.10
2022-07-27T22:05:35.093Z,1.17
2022-07-27T22:08:02.752Z,1.10
2022-07-27T22:10:31.413Z,1.10
2022-07-27T22:12:58.511Z,1.00
2022-07-27T22:15:26.341Z,0.97
2022-07-27T22:17:53.718Z,1.30
2022-07-27T22:20:21.951Z,1.47
2022-07-27T22:22:50.469Z,1.00
2022-07-27T22:25:18.867Z,0.97
2022-07-27T22:27:45.818Z,1.07
2022-07-27T22:30:15.593Z,1.17
2022-07-27T22:32:42.739Z,1.10
2022-07-27T22:35:10.424Z,1.20
2022-07-27T22:37:37.456Z,0.90
2022-07-27T22:40:05.313Z,1.10
2022-07-27T22:42:32.484Z,1.50
2022-07-27T22:44:59.938Z,0.87
2022-07-27T22:47:27.000Z,1.00
2022-07-27T22:49:53.912Z,1.10
2022-07-27T22:52:21.007Z,1.10
2022-07-27T22:54:49.181Z,1.10
2022-07-27T22:57:16.218Z,1.03
2022-07-27T22:59:43.221Z,1.00
2022-07-27T23:02:10.246Z,0.90
2022-07-27T23:04:37.205Z,1.20
2022-07-27T23:07:04.132Z,0.90
2022-07-27T23:09:30.988Z,0.90
2022-07-27T23:11:58.030Z,1.00
2022-07-27T23:14:25.907Z,1.00
2022-07-27T23:16:53.312Z,0.93
2022-07-27T23:19:20.230Z,1.00
2022-07-27T23:21:47.099Z,1.20
2022-07-27T23:24:15.499Z,1.00
2022-07-27T23:26:43.345Z,1.20
2022-07-27T23:29:10.216Z,1.10
2022-07-27T23:31:37.203Z,1.00
2022-07-27T23:34:04.145Z,1.10
2022-07-27T23:36:31.005Z,1.03
2022-07-27T23:38:57.943Z,0.97
2022-07-27T23:41:25.118Z,1.10
2022-07-27T23:43:52.007Z,1.20
2022-07-27T23:46:19.140Z,1.00
2022-07-27T23:48:46.164Z,0.90
2022-07-27T23:51:20.454Z,0.93
2022-07-27T23:53:47.904Z,1.00
2022-07-27T23:56:15.896Z,0.90
2022-07-27T23:58:43.490Z,1.20
